sensor_id;sensor_type;location;lat;lon;timestamp;pressure;altitude;pressure_sealevel;temperature;humidity
78892;BME280;68368;51.728;5.248;2023-04-01T00:00:05;99199.20;;;9.39;88.17
78892;BME280;68368;51.728;5.248;2023-04-01T00:02:09;99198.29;;;9.40;88.11
78892;BME280;68368;51.728;5.248;2023-04-01T00:04:12;99199.34;;;9.40;87.96
78892;BME280;68368;51.728;5.248;2023-04-01T00:06:18;99199.52;;;9.40;88.12
78892;BME280;68368;51.728;5.248;2023-04-01T00:08:21;99203.05;;;9.40;88.10
78892;BME280;68368;51.728;5.248;2023-04-01T00:10:28;99206.73;;;9.41;88.17
78892;BME280;68368;51.728;5.248;2023-04-01T00:12:31;99209.69;;;9.43;88.01
78892;BME280;68368;51.728;5.248;2023-04-01T00:14:35;99211.79;;;9.44;88.03
78892;BME280;68368;51.728;5.248;2023-04-01T00:16:38;99210.12;;;9.46;88.04
78892;BME280;68368;51.728;5.248;2023-04-01T00:18:41;99213.98;;;9.47;87.86
78892;BME280;68368;51.728;5.248;2023-04-01T00:20:46;99219.86;;;9.46;87.81
78892;BME280;68368;51.728;5.248;2023-04-01T00:22:51;99219.35;;;9.45;87.91
78892;BME280;68368;51.728;5.248;2023-04-01T00:24:54;99220.58;;;9.46;87.98
78892;BME280;68368;51.728;5.248;2023-04-01T00:26:58;99218.61;;;9.46;87.88
78892;BME280;68368;51.728;5.248;2023-04-01T00:29:01;99223.04;;;9.46;87.93
78892;BME280;68368;51.728;5.248;2023-04-01T00:31:07;99222.30;;;9.47;87.80
78892;BME280;68368;51.728;5.248;2023-04-01T00:33:11;99224.08;;;9.47;87.82
78892;BME280;68368;51.728;5.248;2023-04-01T00:35:14;99227.82;;;9.46;87.76
78892;BME280;68368;51.728;5.248;2023-04-01T00:37:18;99223.20;;;9.47;87.85
78892;BME280;68368;51.728;5.248;2023-04-01T00:39:21;99226.74;;;9.46;87.64
78892;BME280;68368;51.728;5.248;2023-04-01T00:41:25;99227.77;;;9.48;87.77
78892;BME280;68368;51.728;5.248;2023-04-01T00:43:28;99234.31;;;9.48;87.78
78892;BME280;68368;51.728;5.248;2023-04-01T00:45:37;99229.53;;;9.48;87.61
78892;BME280;68368;51.728;5.248;2023-04-01T00:47:41;99233.80;;;9.48;87.91
78892;BME280;68368;51.728;5.248;2023-04-01T00:49:48;99235.40;;;9.47;87.93
78892;BME280;68368;51.728;5.248;2023-04-01T00:51:55;99236.80;;;9.48;87.90
78892;BME280;68368;51.728;5.248;2023-04-01T00:54:01;99241.71;;;9.49;87.88
78892;BME280;68368;51.728;5.248;2023-04-01T00:56:07;99240.81;;;9.50;87.87
78892;BME280;68368;51.728;5.248;2023-04-01T00:58:17;99242.60;;;9.49;87.81
78892;BME280;68368;51.728;5.248;2023-04-01T01:00:21;99250.36;;;9.50;87.78
78892;BME280;68368;51.728;5.248;2023-04-01T01:02:24;99248.21;;;9.51;87.68
78892;BME280;68368;51.728;5.248;2023-04-01T01:04:29;99250.33;;;9.51;87.91
78892;BME280;68368;51.728;5.248;2023-04-01T01:06:42;99250.68;;;9.51;87.57
78892;BME280;68368;51.728;5.248;2023-04-01T01:09:09;99251.94;;;9.50;87.62
78892;BME280;68368;51.728;5.248;2023-04-01T01:11:17;99248.60;;;9.50;87.65
78892;BME280;68368;51.728;5.248;2023-04-01T01:13:30;99252.34;;;9.49;87.64
78892;BME280;68368;51.728;5.248;2023-04-01T01:15:47;99253.90;;;9.50;87.48
78892;BME280;68368;51.728;5.248;2023-04-01T01:18:05;99257.27;;;9.50;87.31
78892;BME280;68368;51.728;5.248;2023-04-01T01:20:49;99259.77;;;9.49;87.35
78892;BME280;68368;51.728;5.248;2023-04-01T01:23:32;99260.45;;;9.50;87.29
78892;BME280;68368;51.728;5.248;2023-04-01T01:26:06;99261.05;;;9.48;87.19
78892;BME280;68368;51.728;5.248;2023-04-01T01:28:28;99260.52;;;9.48;87.15
78892;BME280;68368;51.728;5.248;2023-04-01T01:30:40;99257.77;;;9.46;87.18
78892;BME280;68368;51.728;5.248;2023-04-01T01:33:08;99258.59;;;9.42;87.09
78892;BME280;68368;51.728;5.248;2023-04-01T01:35:28;99258.36;;;9.38;87.22
78892;BME280;68368;51.728;5.248;2023-04-01T01:37:33;99261.69;;;9.34;87.33
78892;BME280;68368;51.728;5.248;2023-04-01T01:39:37;99262.77;;;9.32;87.32
78892;BME280;68368;51.728;5.248;2023-04-01T01:41:43;99265.84;;;9.31;87.17
78892;BME280;68368;51.728;5.248;2023-04-01T01:43:48;99266.98;;;9.28;87.04
78892;BME280;68368;51.728;5.248;2023-04-01T01:45:55;99265.41;;;9.28;87.13
78892;BME280;68368;51.728;5.248;2023-04-01T01:48:01;99267.36;;;9.27;87.17
78892;BME280;68368;51.728;5.248;2023-04-01T01:50:10;99271.11;;;9.26;87.11
78892;BME280;68368;51.728;5.248;2023-04-01T01:52:16;99274.30;;;9.26;87.30
78892;BME280;68368;51.728;5.248;2023-04-01T01:54:19;99274.52;;;9.24;87.37
78892;BME280;68368;51.728;5.248;2023-04-01T01:56:27;99279.52;;;9.23;87.47
78892;BME280;68368;51.728;5.248;2023-04-01T01:58:34;99277.67;;;9.20;87.51
78892;BME280;68368;51.728;5.248;2023-04-01T02:00:40;99277.52;;;9.19;87.43
78892;BME280;68368;51.728;5.248;2023-04-01T02:02:47;99281.24;;;9.19;87.45
78892;BME280;68368;51.728;5.248;2023-04-01T02:04:51;99284.61;;;9.18;87.47
78892;BME280;68368;51.728;5.248;2023-04-01T02:06:58;99282.66;;;9.18;87.40
78892;BME280;68368;51.728;5.248;2023-04-01T02:09:04;99289.05;;;9.18;87.48
78892;BME280;68368;51.728;5.248;2023-04-01T02:11:10;99285.88;;;9.18;87.57
78892;BME280;68368;51.728;5.248;2023-04-01T02:13:19;99283.75;;;9.18;87.70
78892;BME280;68368;51.728;5.248;2023-04-01T02:15:27;99289.66;;;9.16;87.45
78892;BME280;68368;51.728;5.248;2023-04-01T02:17:32;99290.05;;;9.15;87.57
78892;BME280;68368;51.728;5.248;2023-04-01T02:19:40;99292.02;;;9.13;87.66
78892;BME280;68368;51.728;5.248;2023-04-01T02:21:46;99291.69;;;9.13;87.46
78892;BME280;68368;51.728;5.248;2023-04-01T02:23:50;99296.70;;;9.11;87.73
78892;BME280;68368;51.728;5.248;2023-04-01T02:25:56;99294.63;;;9.10;87.92
78892;BME280;68368;51.728;5.248;2023-04-01T02:28:01;99294.84;;;9.08;87.84
78892;BME280;68368;51.728;5.248;2023-04-01T02:30:07;99299.68;;;9.06;87.62
78892;BME280;68368;51.728;5.248;2023-04-01T02:32:11;99296.36;;;9.05;87.54
78892;BME280;68368;51.728;5.248;2023-04-01T02:34:15;99299.39;;;9.04;87.67
78892;BME280;68368;51.728;5.248;2023-04-01T02:36:19;99298.69;;;9.03;87.94
78892;BME280;68368;51.728;5.248;2023-04-01T02:38:23;99297.84;;;9.02;87.84
78892;BME280;68368;51.728;5.248;2023-04-01T02:40:27;99301.07;;;9.00;88.05
78892;BME280;68368;51.728;5.248;2023-04-01T02:42:31;99300.34;;;9.02;88.11
78892;BME280;68368;51.728;5.248;2023-04-01T02:44:34;99300.02;;;9.00;88.07
78892;BME280;68368;51.728;5.248;2023-04-01T02:46:37;99300.58;;;9.00;88.15
78892;BME280;68368;51.728;5.248;2023-04-01T02:48:41;99310.48;;;8.99;87.92
78892;BME280;68368;51.728;5.248;2023-04-01T02:50:51;99303.20;;;9.00;88.04
78892;BME280;68368;51.728;5.248;2023-04-01T02:52:54;99314.31;;;9.02;88.06
78892;BME280;68368;51.728;5.248;2023-04-01T02:54:57;99310.77;;;9.02;87.84
78892;BME280;68368;51.728;5.248;2023-04-01T02:57:01;99314.50;;;9.01;87.86
78892;BME280;68368;51.728;5.248;2023-04-01T02:59:04;99314.16;;;9.00;87.78
78892;BME280;68368;51.728;5.248;2023-04-01T03:01:07;99317.69;;;9.01;87.85
78892;BME280;68368;51.728;5.248;2023-04-01T03:03:19;99316.48;;;9.00;87.71
78892;BME280;68368;51.728;5.248;2023-04-01T03:05:22;99319.29;;;9.01;87.79
78892;BME280;68368;51.728;5.248;2023-04-01T03:07:25;99318.98;;;9.00;87.70
78892;BME280;68368;51.728;5.248;2023-04-01T03:09:29;99323.45;;;8.98;87.80
78892;BME280;68368;51.728;5.248;2023-04-01T03:11:32;99326.83;;;8.97;87.87
78892;BME280;68368;51.728;5.248;2023-04-01T03:13:36;99328.81;;;8.96;87.70
78892;BME280;68368;51.728;5.248;2023-04-01T03:15:42;99326.38;;;8.94;87.91
78892;BME280;68368;51.728;5.248;2023-04-01T03:17:45;99332.06;;;8.94;87.70
78892;BME280;68368;51.728;5.248;2023-04-01T03:19:48;99334.84;;;8.96;88.00
78892;BME280;68368;51.728;5.248;2023-04-01T03:21:53;99336.55;;;8.98;87.86
78892;BME280;68368;51.728;5.248;2023-04-01T03:23:56;99338.81;;;8.99;87.69
78892;BME280;68368;51.728;5.248;2023-04-01T03:25:59;99338.27;;;9.00;87.71
78892;BME280;68368;51.728;5.248;2023-04-01T03:28:03;99337.41;;;8.99;87.82
78892;BME280;68368;51.728;5.248;2023-04-01T03:30:09;99341.33;;;8.98;87.82
78892;BME280;68368;51.728;5.248;2023-04-01T03:32:13;99340.80;;;8.97;87.82
78892;BME280;68368;51.728;5.248;2023-04-01T03:34:16;99345.06;;;8.97;87.75
78892;BME280;68368;51.728;5.248;2023-04-01T03:36:19;99346.50;;;8.96;87.61
78892;BME280;68368;51.728;5.248;2023-04-01T03:38:25;99350.20;;;8.97;87.75
78892;BME280;68368;51.728;5.248;2023-04-01T03:40:29;99349.14;;;8.97;87.77
78892;BME280;68368;51.728;5.248;2023-04-01T03:42:32;99348.25;;;8.97;87.70
78892;BME280;68368;51.728;5.248;2023-04-01T03:44:36;99351.95;;;8.97;87.43
78892;BME280;68368;51.728;5.248;2023-04-01T03:46:40;99352.66;;;8.98;87.68
78892;BME280;68368;51.728;5.248;2023-04-01T03:48:45;99350.35;;;8.98;87.94
78892;BME280;68368;51.728;5.248;2023-04-01T03:50:48;99351.46;;;8.96;87.64
78892;BME280;68368;51.728;5.248;2023-04-01T03:52:54;99355.94;;;8.94;87.72
78892;BME280;68368;51.728;5.248;2023-04-01T03:54:57;99358.09;;;8.93;87.89
78892;BME280;68368;51.728;5.248;2023-04-01T03:57:00;99363.26;;;8.92;87.85
78892;BME280;68368;51.728;5.248;2023-04-01T03:59:05;99361.85;;;8.91;87.90
78892;BME280;68368;51.728;5.248;2023-04-01T04:01:21;99367.89;;;8.91;87.79
78892;BME280;68368;51.728;5.248;2023-04-01T04:03:26;99365.27;;;8.90;87.73
78892;BME280;68368;51.728;5.248;2023-04-01T04:05:30;99363.53;;;8.88;88.11
78892;BME280;68368;51.728;5.248;2023-04-01T04:07:35;99365.33;;;8.87;87.95
78892;BME280;68368;51.728;5.248;2023-04-01T04:09:39;99371.55;;;8.86;87.94
78892;BME280;68368;51.728;5.248;2023-04-01T04:11:44;99371.39;;;8.85;87.85
78892;BME280;68368;51.728;5.248;2023-04-01T04:13:48;99377.05;;;8.86;87.85
78892;BME280;68368;51.728;5.248;2023-04-01T04:15:51;99377.40;;;8.86;87.86
78892;BME280;68368;51.728;5.248;2023-04-01T04:17:54;99380.46;;;8.83;87.82
78892;BME280;68368;51.728;5.248;2023-04-01T04:19:57;99379.96;;;8.82;87.74
78892;BME280;68368;51.728;5.248;2023-04-01T04:22:03;99381.59;;;8.81;87.83
78892;BME280;68368;51.728;5.248;2023-04-01T04:24:07;99387.39;;;8.83;87.91
78892;BME280;68368;51.728;5.248;2023-04-01T04:26:12;99388.42;;;8.83;87.77
78892;BME280;68368;51.728;5.248;2023-04-01T04:28:19;99392.66;;;8.84;87.71
78892;BME280;68368;51.728;5.248;2023-04-01T04:30:22;99391.44;;;8.83;87.75
78892;BME280;68368;51.728;5.248;2023-04-01T04:32:25;99392.65;;;8.84;87.71
78892;BME280;68368;51.728;5.248;2023-04-01T04:34:28;99397.47;;;8.83;87.95
78892;BME280;68368;51.728;5.248;2023-04-01T04:36:34;99399.59;;;8.83;87.99
78892;BME280;68368;51.728;5.248;2023-04-01T04:38:38;99398.19;;;8.82;87.94
78892;BME280;68368;51.728;5.248;2023-04-01T04:40:42;99406.02;;;8.80;87.87
78892;BME280;68368;51.728;5.248;2023-04-01T04:42:46;99404.45;;;8.80;88.06
78892;BME280;68368;51.728;5.248;2023-04-01T04:44:50;99408.36;;;8.79;88.22
78892;BME280;68368;51.728;5.248;2023-04-01T04:46:54;99414.85;;;8.81;88.24
78892;BME280;68368;51.728;5.248;2023-04-01T04:48:57;99417.80;;;8.83;88.19
78892;BME280;68368;51.728;5.248;2023-04-01T04:51:01;99419.38;;;8.84;88.16
78892;BME280;68368;51.728;5.248;2023-04-01T04:53:04;99418.98;;;8.86;88.42
78892;BME280;68368;51.728;5.248;2023-04-01T04:55:08;99425.32;;;8.87;88.24
78892;BME280;68368;51.728;5.248;2023-04-01T04:57:12;99430.80;;;8.88;88.26
78892;BME280;68368;51.728;5.248;2023-04-01T04:59:15;99434.29;;;8.89;88.19
78892;BME280;68368;51.728;5.248;2023-04-01T05:01:19;99438.34;;;8.90;88.18
78892;BME280;68368;51.728;5.248;2023-04-01T05:03:23;99442.59;;;8.90;88.27
78892;BME280;68368;51.728;5.248;2023-04-01T05:05:26;99444.33;;;8.91;88.38
78892;BME280;68368;51.728;5.248;2023-04-01T05:07:29;99449.77;;;8.92;88.42
78892;BME280;68368;51.728;5.248;2023-04-01T05:09:32;99449.23;;;8.94;88.17
78892;BME280;68368;51.728;5.248;2023-04-01T05:11:37;99456.98;;;8.95;88.40
78892;BME280;68368;51.728;5.248;2023-04-01T05:13:41;99458.88;;;8.97;88.32
78892;BME280;68368;51.728;5.248;2023-04-01T05:15:45;99463.96;;;8.99;88.21
78892;BME280;68368;51.728;5.248;2023-04-01T05:17:49;99465.88;;;9.00;88.26
78892;BME280;68368;51.728;5.248;2023-04-01T05:19:52;99472.39;;;9.01;88.23
78892;BME280;68368;51.728;5.248;2023-04-01T05:21:56;99477.84;;;9.03;88.30
78892;BME280;68368;51.728;5.248;2023-04-01T05:23:59;99476.58;;;9.03;88.19
78892;BME280;68368;51.728;5.248;2023-04-01T05:26:05;99480.98;;;9.04;88.32
78892;BME280;68368;51.728;5.248;2023-04-01T05:28:08;99483.28;;;9.04;88.30
78892;BME280;68368;51.728;5.248;2023-04-01T05:30:13;99487.36;;;9.03;88.28
78892;BME280;68368;51.728;5.248;2023-04-01T05:32:16;99489.81;;;9.05;88.33
78892;BME280;68368;51.728;5.248;2023-04-01T05:34:19;99485.81;;;9.02;88.26
78892;BME280;68368;51.728;5.248;2023-04-01T05:36:23;99492.06;;;9.07;88.29
78892;BME280;68368;51.728;5.248;2023-04-01T05:38:26;99495.03;;;9.09;88.29
78892;BME280;68368;51.728;5.248;2023-04-01T05:40:31;99496.59;;;9.11;88.24
78892;BME280;68368;51.728;5.248;2023-04-01T05:42:34;99497.97;;;9.12;88.15
78892;BME280;68368;51.728;5.248;2023-04-01T05:44:38;99502.34;;;9.13;88.16
78892;BME280;68368;51.728;5.248;2023-04-01T05:46:42;99504.27;;;9.14;88.17
78892;BME280;68368;51.728;5.248;2023-04-01T05:48:45;99509.59;;;9.14;88.14
78892;BME280;68368;51.728;5.248;2023-04-01T05:50:48;99509.58;;;9.15;88.34
78892;BME280;68368;51.728;5.248;2023-04-01T05:52:54;99516.87;;;9.13;88.37
78892;BME280;68368;51.728;5.248;2023-04-01T05:54:58;99517.77;;;9.13;88.41
78892;BME280;68368;51.728;5.248;2023-04-01T05:57:01;99521.45;;;9.13;88.36
78892;BME280;68368;51.728;5.248;2023-04-01T05:59:04;99523.77;;;9.13;88.49
78892;BME280;68368;51.728;5.248;2023-04-01T06:01:10;99531.21;;;9.13;88.46
78892;BME280;68368;51.728;5.248;2023-04-01T06:03:14;99531.55;;;9.14;88.25
78892;BME280;68368;51.728;5.248;2023-04-01T06:05:20;99530.80;;;9.15;88.56
78892;BME280;68368;51.728;5.248;2023-04-01T06:07:24;99539.29;;;9.16;88.43
78892;BME280;68368;51.728;5.248;2023-04-01T06:09:29;99539.80;;;9.17;88.44
78892;BME280;68368;51.728;5.248;2023-04-01T06:11:40;99549.35;;;9.17;88.51
78892;BME280;68368;51.728;5.248;2023-04-01T06:14:05;99553.60;;;9.17;88.46
78892;BME280;68368;51.728;5.248;2023-04-01T06:16:18;99559.09;;;9.17;88.56
78892;BME280;68368;51.728;5.248;2023-04-01T06:18:38;99557.32;;;9.17;88.61
78892;BME280;68368;51.728;5.248;2023-04-01T06:20:49;99565.95;;;9.18;88.40
78892;BME280;68368;51.728;5.248;2023-04-01T06:23:17;99567.55;;;9.19;88.40
78892;BME280;68368;51.728;5.248;2023-04-01T06:25:33;99572.14;;;9.19;88.44
78892;BME280;68368;51.728;5.248;2023-04-01T06:27:51;99580.62;;;9.20;88.36
78892;BME280;68368;51.728;5.248;2023-04-01T06:30:07;99582.16;;;9.21;88.40
78892;BME280;68368;51.728;5.248;2023-04-01T06:32:33;99587.61;;;9.23;88.43
78892;BME280;68368;51.728;5.248;2023-04-01T06:34:58;99589.55;;;9.23;88.14
78892;BME280;68368;51.728;5.248;2023-04-01T06:37:30;99593.85;;;9.22;88.17
78892;BME280;68368;51.728;5.248;2023-04-01T06:40:00;99601.65;;;9.21;88.38
78892;BME280;68368;51.728;5.248;2023-04-01T06:42:26;99599.75;;;9.20;88.16
78892;BME280;68368;51.728;5.248;2023-04-01T06:44:40;99603.63;;;9.20;88.21
78892;BME280;68368;51.728;5.248;2023-04-01T06:46:50;99606.43;;;9.21;88.14
78892;BME280;68368;51.728;5.248;2023-04-01T06:49:20;99603.23;;;9.21;88.01
78892;BME280;68368;51.728;5.248;2023-04-01T06:51:33;99610.27;;;9.24;87.82
78892;BME280;68368;51.728;5.248;2023-04-01T06:53:46;99610.92;;;9.25;87.90
78892;BME280;68368;51.728;5.248;2023-04-01T06:55:55;99613.76;;;9.26;87.90
78892;BME280;68368;51.728;5.248;2023-04-01T06:58:01;99618.73;;;9.25;88.11
78892;BME280;68368;51.728;5.248;2023-04-01T07:00:16;99616.63;;;9.24;88.14
78892;BME280;68368;51.728;5.248;2023-04-01T07:02:28;99624.00;;;9.27;88.04
78892;BME280;68368;51.728;5.248;2023-04-01T07:04:38;99630.02;;;9.27;87.83
78892;BME280;68368;51.728;5.248;2023-04-01T07:06:47;99631.41;;;9.28;88.02
78892;BME280;68368;51.728;5.248;2023-04-01T07:08:57;99635.23;;;9.31;87.76
78892;BME280;68368;51.728;5.248;2023-04-01T07:11:04;99637.79;;;9.36;87.85
78892;BME280;68368;51.728;5.248;2023-04-01T07:13:10;99637.50;;;9.40;87.68
78892;BME280;68368;51.728;5.248;2023-04-01T07:15:22;99645.40;;;9.43;87.47
78892;BME280;68368;51.728;5.248;2023-04-01T07:17:30;99641.66;;;9.43;87.41
78892;BME280;68368;51.728;5.248;2023-04-01T07:19:39;99645.55;;;9.44;87.24
78892;BME280;68368;51.728;5.248;2023-04-01T07:21:48;99649.76;;;9.45;87.16
78892;BME280;68368;51.728;5.248;2023-04-01T07:23:54;99651.45;;;9.48;87.09
78892;BME280;68368;51.728;5.248;2023-04-01T07:26:03;99653.70;;;9.50;86.78
78892;BME280;68368;51.728;5.248;2023-04-01T07:28:15;99653.17;;;9.51;86.66
78892;BME280;68368;51.728;5.248;2023-04-01T07:30:21;99663.27;;;9.51;86.61
78892;BME280;68368;51.728;5.248;2023-04-01T07:32:35;99660.77;;;9.51;86.60
78892;BME280;68368;51.728;5.248;2023-04-01T07:37:17;99671.08;;;9.50;86.51
78892;BME280;68368;51.728;5.248;2023-04-01T07:39:33;99670.59;;;9.48;86.39
78892;BME280;68368;51.728;5.248;2023-04-01T07:41:47;99680.67;;;9.49;86.49
78892;BME280;68368;51.728;5.248;2023-04-01T07:44:04;99678.72;;;9.49;86.60
78892;BME280;68368;51.728;5.248;2023-04-01T07:46:17;99680.67;;;9.49;86.58
78892;BME280;68368;51.728;5.248;2023-04-01T07:48:29;99686.88;;;9.49;86.68
78892;BME280;68368;51.728;5.248;2023-04-01T07:50:37;99686.50;;;9.50;86.78
78892;BME280;68368;51.728;5.248;2023-04-01T07:52:47;99693.73;;;9.50;86.89
78892;BME280;68368;51.728;5.248;2023-04-01T07:54:59;99694.47;;;9.50;86.92
78892;BME280;68368;51.728;5.248;2023-04-01T07:57:10;99695.39;;;9.49;86.99
78892;BME280;68368;51.728;5.248;2023-04-01T07:59:20;99702.79;;;9.50;86.93
78892;BME280;68368;51.728;5.248;2023-04-01T08:01:32;99704.75;;;9.49;86.67
78892;BME280;68368;51.728;5.248;2023-04-01T08:03:48;99710.77;;;9.49;86.72
78892;BME280;68368;51.728;5.248;2023-04-01T08:05:59;99715.00;;;9.50;86.62
78892;BME280;68368;51.728;5.248;2023-04-01T08:08:10;99715.14;;;9.52;86.65
78892;BME280;68368;51.728;5.248;2023-04-01T08:10:22;99721.66;;;9.54;86.71
78892;BME280;68368;51.728;5.248;2023-04-01T08:12:40;99729.97;;;9.55;86.70
78892;BME280;68368;51.728;5.248;2023-04-01T08:14:58;99730.12;;;9.56;86.81
78892;BME280;68368;51.728;5.248;2023-04-01T08:17:10;99738.44;;;9.56;86.70
78892;BME280;68368;51.728;5.248;2023-04-01T08:19:27;99744.94;;;9.58;86.67
78892;BME280;68368;51.728;5.248;2023-04-01T08:21:38;99748.09;;;9.60;86.58
78892;BME280;68368;51.728;5.248;2023-04-01T08:23:47;99748.89;;;9.63;86.50
78892;BME280;68368;51.728;5.248;2023-04-01T08:25:56;99753.29;;;9.65;86.69
78892;BME280;68368;51.728;5.248;2023-04-01T08:28:08;99751.48;;;9.66;86.39
78892;BME280;68368;51.728;5.248;2023-04-01T08:30:20;99755.69;;;9.68;86.20
78892;BME280;68368;51.728;5.248;2023-04-01T08:32:28;99759.42;;;9.67;86.16
78892;BME280;68368;51.728;5.248;2023-04-01T08:34:36;99766.02;;;9.66;86.28
78892;BME280;68368;51.728;5.248;2023-04-01T08:36:43;99763.19;;;9.65;86.18
78892;BME280;68368;51.728;5.248;2023-04-01T08:38:50;99767.98;;;9.66;86.23
78892;BME280;68368;51.728;5.248;2023-04-01T08:41:23;99765.09;;;9.68;86.24
78892;BME280;68368;51.728;5.248;2023-04-01T08:46:11;99775.93;;;9.67;86.22
78892;BME280;68368;51.728;5.248;2023-04-01T08:48:33;99778.91;;;9.68;86.16
78892;BME280;68368;51.728;5.248;2023-04-01T08:53:17;99787.73;;;9.69;86.36
78892;BME280;68368;51.728;5.248;2023-04-01T08:55:50;99794.13;;;9.69;86.39
78892;BME280;68368;51.728;5.248;2023-04-01T08:57:56;99799.61;;;9.69;86.23
78892;BME280;68368;51.728;5.248;2023-04-01T09:00:12;99796.60;;;9.69;86.06
78892;BME280;68368;51.728;5.248;2023-04-01T09:05:24;99805.22;;;9.71;86.33
78892;BME280;68368;51.728;5.248;2023-04-01T09:07:38;99809.27;;;9.73;85.98
78892;BME280;68368;51.728;5.248;2023-04-01T09:12:35;99819.32;;;9.75;85.90
78892;BME280;68368;51.728;5.248;2023-04-01T09:14:53;99820.74;;;9.75;85.83
78892;BME280;68368;51.728;5.248;2023-04-01T09:17:02;99824.41;;;9.77;86.09
78892;BME280;68368;51.728;5.248;2023-04-01T09:19:26;99826.33;;;9.79;86.16
78892;BME280;68368;51.728;5.248;2023-04-01T09:21:51;99827.86;;;9.81;86.08
78892;BME280;68368;51.728;5.248;2023-04-01T09:24:23;99826.99;;;9.81;85.84
78892;BME280;68368;51.728;5.248;2023-04-01T09:26:46;99830.91;;;9.80;85.99
78892;BME280;68368;51.728;5.248;2023-04-01T09:29:02;99839.77;;;9.80;85.97
78892;BME280;68368;51.728;5.248;2023-04-01T09:31:24;99838.05;;;9.78;85.85
78892;BME280;68368;51.728;5.248;2023-04-01T09:33:49;99841.95;;;9.78;85.87
78892;BME280;68368;51.728;5.248;2023-04-01T09:36:06;99846.33;;;9.80;85.89
78892;BME280;68368;51.728;5.248;2023-04-01T09:38:22;99847.50;;;9.83;85.91
78892;BME280;68368;51.728;5.248;2023-04-01T09:40:35;99847.81;;;9.85;85.98
78892;BME280;68368;51.728;5.248;2023-04-01T09:42:48;99846.14;;;9.88;85.94
78892;BME280;68368;51.728;5.248;2023-04-01T09:45:00;99849.80;;;9.91;85.77
78892;BME280;68368;51.728;5.248;2023-04-01T09:47:22;99852.06;;;9.93;85.56
78892;BME280;68368;51.728;5.248;2023-04-01T09:49:57;99857.92;;;9.92;85.43
78892;BME280;68368;51.728;5.248;2023-04-01T09:52:20;99856.34;;;9.92;85.56
78892;BME280;68368;51.728;5.248;2023-04-01T09:54:36;99859.58;;;9.90;85.46
78892;BME280;68368;51.728;5.248;2023-04-01T09:57:04;99859.34;;;9.92;85.37
78892;BME280;68368;51.728;5.248;2023-04-01T09:59:40;99866.70;;;9.96;85.20
78892;BME280;68368;51.728;5.248;2023-04-01T10:04:54;99867.39;;;10.04;85.50
78892;BME280;68368;51.728;5.248;2023-04-01T10:07:28;99873.69;;;10.08;85.41
78892;BME280;68368;51.728;5.248;2023-04-01T10:10:14;99870.81;;;10.10;85.37
78892;BME280;68368;51.728;5.248;2023-04-01T10:12:42;99873.66;;;10.09;85.54
78892;BME280;68368;51.728;5.248;2023-04-01T10:15:23;99879.51;;;10.10;85.79
78892;BME280;68368;51.728;5.248;2023-04-01T10:17:52;99886.19;;;10.12;85.92
78892;BME280;68368;51.728;5.248;2023-04-01T10:20:18;99887.05;;;10.13;86.08
78892;BME280;68368;51.728;5.248;2023-04-01T10:22:39;99891.41;;;10.16;86.00
78892;BME280;68368;51.728;5.248;2023-04-01T10:25:10;99891.23;;;10.16;85.71
78892;BME280;68368;51.728;5.248;2023-04-01T10:27:35;99893.02;;;10.15;85.92
78892;BME280;68368;51.728;5.248;2023-04-01T10:30:13;99894.81;;;10.15;85.91
78892;BME280;68368;51.728;5.248;2023-04-01T10:32:47;99893.44;;;10.13;85.89
78892;BME280;68368;51.728;5.248;2023-04-01T10:35:20;99896.26;;;10.14;86.03
78892;BME280;68368;51.728;5.248;2023-04-01T10:37:50;99901.20;;;10.14;86.04
78892;BME280;68368;51.728;5.248;2023-04-01T10:40:28;99902.45;;;10.14;85.72
78892;BME280;68368;51.728;5.248;2023-04-01T10:43:26;99899.27;;;10.14;85.39
78892;BME280;68368;51.728;5.248;2023-04-01T10:48:47;99904.97;;;10.13;85.55
78892;BME280;68368;51.728;5.248;2023-04-01T10:51:17;99906.39;;;10.13;85.68
78892;BME280;68368;51.728;5.248;2023-04-01T10:53:43;99906.19;;;10.14;85.77
78892;BME280;68368;51.728;5.248;2023-04-01T10:56:07;99915.35;;;10.16;85.63
78892;BME280;68368;51.728;5.248;2023-04-01T10:58:42;99913.52;;;10.19;85.74
78892;BME280;68368;51.728;5.248;2023-04-01T11:01:29;99912.36;;;10.22;85.78
78892;BME280;68368;51.728;5.248;2023-04-01T11:04:29;99914.34;;;10.30;85.70
78892;BME280;68368;51.728;5.248;2023-04-01T11:12:16;99925.40;;;10.43;85.29
78892;BME280;68368;51.728;5.248;2023-04-01T11:15:01;99919.79;;;10.48;85.17
78892;BME280;68368;51.728;5.248;2023-04-01T11:17:38;99928.42;;;10.50;84.80
78892;BME280;68368;51.728;5.248;2023-04-01T11:22:53;99931.15;;;10.54;84.88
78892;BME280;68368;51.728;5.248;2023-04-01T11:25:14;99929.39;;;10.54;84.72
78892;BME280;68368;51.728;5.248;2023-04-01T11:27:35;99934.02;;;10.53;84.50
78892;BME280;68368;51.728;5.248;2023-04-01T11:30:02;99936.84;;;10.54;84.31
78892;BME280;68368;51.728;5.248;2023-04-01T11:32:20;99939.89;;;10.52;84.13
78892;BME280;68368;51.728;5.248;2023-04-01T11:34:47;99947.92;;;10.50;84.01
78892;BME280;68368;51.728;5.248;2023-04-01T11:37:01;99954.04;;;10.48;84.10
78892;BME280;68368;51.728;5.248;2023-04-01T11:39:17;99955.69;;;10.45;84.05
78892;BME280;68368;51.728;5.248;2023-04-01T11:41:34;99957.17;;;10.42;84.22
78892;BME280;68368;51.728;5.248;2023-04-01T11:43:49;99962.58;;;10.39;84.38
78892;BME280;68368;51.728;5.248;2023-04-01T11:46:03;99964.02;;;10.37;84.53
78892;BME280;68368;51.728;5.248;2023-04-01T11:48:22;99967.79;;;10.36;84.60
78892;BME280;68368;51.728;5.248;2023-04-01T11:50:40;99964.80;;;10.34;84.39
78892;BME280;68368;51.728;5.248;2023-04-01T11:53:10;99972.76;;;10.36;84.39
78892;BME280;68368;51.728;5.248;2023-04-01T11:55:27;99975.35;;;10.39;84.47
78892;BME280;68368;51.728;5.248;2023-04-01T11:57:54;99978.11;;;10.42;84.47
78892;BME280;68368;51.728;5.248;2023-04-01T12:00:27;99982.43;;;10.47;84.50
78892;BME280;68368;51.728;5.248;2023-04-01T12:02:44;99981.48;;;10.50;84.51
78892;BME280;68368;51.728;5.248;2023-04-01T12:08:02;99990.91;;;10.57;84.17
78892;BME280;68368;51.728;5.248;2023-04-01T12:10:19;99991.58;;;10.58;83.98
78892;BME280;68368;51.728;5.248;2023-04-01T12:12:27;99998.81;;;10.60;83.93
78892;BME280;68368;51.728;5.248;2023-04-01T12:14:41;100000.39;;;10.60;84.13
78892;BME280;68368;51.728;5.248;2023-04-01T12:16:58;99998.63;;;10.60;84.31